Capitalizator.

Capitalize Yourself: Right Data. Real Growth.

Sector Analysis

In Vitro & In Vivo Diagnostic Substances

Standard Industrial Classification: SIC 2835

Industry Insider Sentiment Analysis

The In Vitro & In Vivo Diagnostic Substances sector (SIC 2835) acts as a critical barometer for broader economic health. Our real-time monitoring reveals total transactions. Monitoring "cluster buying" is one of the most reliable leading indicators for future sector performance. By analyzing aggregate data across this specific Standard Industrial Classification, investors can filter out individual company volatility and identify high-conviction trends. When multiple directors and officers within the same industry move capital simultaneously, it often signals an upcoming sector-wide revaluation or a fundamental shift in supply chain dynamics that has yet to be recognized by the broader public market.

Filing Date Trade Date Ticker Company Reporting Person Relationship Type Price Qty Total, $ Owned After
2011-08-10 16:52 2011-08-09 CLDX Celldex Therapeutics, Inc. CATLIN AVERY W Officer BUY $2.39 2,000 $4,780 2,000
2011-08-10 02:14 2011-08-09 OGXI ACHIEVE LIFE SCIENCES, INC. PARKER H STEWART Director BUY $10.09 3,000 $30,275 3,000
2011-08-05 00:02 2011-08-04 NEOG NEOGEN CORP Quinlan Steven J. Officer BUY $37.19 500 $18,595 500
2011-08-03 20:44 2011-08-01 NEOG NEOGEN CORP YEUTTER CLAYTON K Director BUY $41.98 300 $12,594 3,465
2011-08-03 21:27 2011-08-02 NEOG NEOGEN CORP HERBERT JAMES L Director, Officer OPT+S $38.57 16,817 $648,612 827,533
2011-08-02 17:49 2011-08-01 VRML Aspira Women's Health Inc. Creech William B. Officer BUY $4.16 500 $2,080 22,963
2011-08-03 01:14 2011-08-01 NEOG NEOGEN CORP FISCHER A. CHARLES Director BUY $39.97 1,000 $39,970 1,000
2011-07-29 16:58 2011-07-27 IDXX IDEXX LABORATORIES INC /DE AYERS JONATHAN W Director, Officer OPT+S $83.50 15,000 $1,252,523 292,618
2011-07-19 00:34 2011-07-15 IDXX IDEXX LABORATORIES INC /DE DEADY CONAN R Officer OPT+S $78.37 20,000 $1,567,444 19,347
2011-07-19 00:39 2011-07-14 IDXX IDEXX LABORATORIES INC /DE AYERS JONATHAN W Director, Officer OPT+S $79.41 15,000 $1,191,173 287,618
2011-07-12 19:25 2011-07-08 ICCC IMMUCELL CORP /DE/ Tomsche David Scott Director BUY $6.63 1,873 $12,410 37,668
2011-07-06 18:25 2011-07-01 VRML Aspira Women's Health Inc. Creech William B. Officer BUY $4.04 489 $1,976 22,463
2011-06-24 00:11 2011-06-21 ICCC IMMUCELL CORP /DE/ Tomsche David Scott Director BUY $6.24 2,322 $14,497 35,795
2011-06-22 20:51 2011-06-21 IDXX IDEXX LABORATORIES INC /DE AYERS JONATHAN W Director, Officer OPT+S $74.96 15,000 $1,124,448 282,540
2011-06-16 23:35 2011-06-15 MYGN MYRIAD GENETICS INC MELDRUM PETER D Director, Officer OPT+S $23.99 20,000 $479,760 175,093
2011-06-09 22:38 2011-06-09 VRML Aspira Women's Health Inc. Fung Eric T Officer BUY $4.72 1,000 $4,720 52,471
2011-06-08 23:03 2011-06-08 VRML Aspira Women's Health Inc. Severinghaus Carl Director SELL $4.98 4,000 $19,920 27,500
2011-06-08 23:22 2011-06-06 IDXX IDEXX LABORATORIES INC /DE AYERS JONATHAN W Director, Officer OPT+S $73.75 30,000 $2,212,632 277,540
2011-06-02 20:10 2011-06-01 VRML Aspira Women's Health Inc. Creech William B. Officer BUY $5.28 374 $1,975 21,974
2011-05-26 22:40 2011-05-25 IDXX IDEXX LABORATORIES INC /DE DEADY CONAN R Officer OPT+S $77.26 20,000 $1,545,150 19,347
2011-05-27 01:36 2011-05-25 MYGN MYRIAD GENETICS INC MELDRUM PETER D Director, Officer OPT+S $25.00 20,000 $500,000 173,926
2011-05-19 22:05 2011-05-18 MYGN MYRIAD GENETICS INC Evans James S Officer OPT+S $24.65 5,000 $123,251 44,411
2011-05-19 18:57 2011-05-18 MYGN MYRIAD GENETICS INC LANCHBURY JERRY S Officer OPT+S $25.00 44,314 $1,108,027 24,201
2011-05-19 23:17 2011-05-18 MYGN MYRIAD GENETICS INC MELDRUM PETER D Director, Officer OPT+S $24.67 20,000 $493,390 173,926
2011-05-16 20:01 2011-05-12 MYGN MYRIAD GENETICS INC Evans James S Officer OPT+S $24.50 5,000 $122,500 44,411
2011-05-12 16:09 2011-05-09 MYGN MYRIAD GENETICS INC Harrison Robert Gardner Officer OPT+S $23.08 20,000 $461,674 4,674
2011-05-12 16:11 2011-05-09 MYGN MYRIAD GENETICS INC MARSH RICHARD M Officer OPT+S $23.21 69,300 $1,608,204 18,429
2011-05-04 21:15 2011-05-03 IDXX IDEXX LABORATORIES INC /DE NAQUI ALI Officer OPT+S $80.54 7,000 $563,807 19,842
2011-05-04 23:34 2011-05-04 MYGN MYRIAD GENETICS INC LANCHBURY JERRY S Officer SELL $22.75 5,300 $120,575 24,201
2011-05-03 18:48 2011-05-03 NEOG NEOGEN CORP BRADLEY EDWARD Officer OPT+S $41.89 5,850 $245,057 109,520
2011-05-03 18:21 2011-05-02 NEOG NEOGEN CORP BOHANNON LON M Director, Officer SELL $41.82 10,000 $418,200 302,446
2011-05-02 19:00 2011-04-29 MYGN MYRIAD GENETICS INC LANCHBURY JERRY S Officer SELL $22.00 4,700 $103,416 29,501
2011-04-29 18:01 2011-04-28 IDXX IDEXX LABORATORIES INC /DE Williams Michael J PhD Officer OPT+S $80.90 12,522 $1,012,972 9,154
2011-04-28 23:17 2011-04-26 IDXX IDEXX LABORATORIES INC /DE GOODSPEED WILLIAM B. Officer OPT+S $79.42 21,805 $1,731,753 4,620
2011-04-28 23:18 2011-04-27 IDXX IDEXX LABORATORIES INC /DE END WILLIAM T Director OPT+S $80.27 7,000 $561,888 24,063
2011-04-28 23:20 2011-04-26 IDXX IDEXX LABORATORIES INC /DE CRAIG THOMAS Director OPT+S $80.33 7,000 $562,303 9,684
2011-04-28 23:19 2011-04-26 IDXX IDEXX LABORATORIES INC /DE DEADY CONAN R Officer OPT+S $80.05 20,000 $1,601,044 19,347
2011-04-15 23:35 2011-04-15 ICCC IMMUCELL CORP /DE/ ROTHSCHILD JONATHAN E Director BUY $0.00 10 $0 463,780
2011-04-15 00:01 2011-04-14 NEOG NEOGEN CORP CURRENT RICHARD R Officer SELL $40.08 1,000 $40,080 35,400
2011-04-13 22:17 2011-04-12 NEOG NEOGEN CORP CURRENT RICHARD R Officer SELL $40.03 1,657 $66,330 36,400
2011-04-05 22:00 2011-04-01 NEOG NEOGEN CORP MORRICAL TERRI A Officer OPT+S $40.75 6,300 $256,725 12,614
2011-04-05 16:14 2011-04-01 NEOG NEOGEN CORP BOHANNON LON M Director, Officer SELL $40.96 10,000 $409,550 312,446
2011-04-05 23:13 2011-04-01 NEOG NEOGEN CORP HERBERT JAMES L Director, Officer OPT+S $41.13 26,000 $1,069,432 825,424
2011-04-05 00:45 2011-03-31 NEOG NEOGEN CORP CURRENT RICHARD R Officer SELL $40.61 10,000 $406,080 38,057
2011-04-05 00:53 2011-03-31 NEOG NEOGEN CORP PARNELL JACK C Director SELL $40.04 9,000 $360,324 14,585
2011-03-29 01:41 2011-03-23 NEOG NEOGEN CORP PARNELL JACK C Director SELL $40.00 1,000 $40,000 23,585
2011-03-25 01:59 2011-03-24 NEOG NEOGEN CORP CURRENT RICHARD R Officer SELL $38.48 300 $11,544 48,057
2011-03-21 23:13 2011-03-17 ICCC IMMUCELL CORP /DE/ Tomsche David Scott Director BUY $3.46 3,200 $11,084 33,473
2011-03-15 22:35 2011-03-11 ICCC IMMUCELL CORP /DE/ ROTHSCHILD JONATHAN E Director, 10% owner BUY $3.17 1,420 $4,508 463,770
2011-03-04 22:04 2011-03-03 IDXX IDEXX LABORATORIES INC /DE MCKEON BRIAN P Director SELL $79.05 2,500 $197,626 12,341
SHOW ENTRIES

Sector-Wide Insider Alpha

Analyzing insider movements across the In Vitro & In Vivo Diagnostic Substances sector provides a macro-view of executive conviction. When multiple leaders in different companies within the same SIC code (2835) simultaneously buy shares, it often indicates an industry-wide undervaluation or a positive shift in market cycles.

SEC Filings in In Vitro & In Vivo Diagnostic Substances

Every transaction in the In Vitro & In Vivo Diagnostic Substances industry is reported via Form 4 disclosures. By filtering these filings by industry, investors can detect institutional-scale sentiment shifts before they are reflected in broader market indices, following the capital flow of those with intimate industry knowledge.

UNDERSTANDING THE DATA

FILING DATE: The date and time when the transaction was reported to the SEC. This is when the public first receives the information.

TRADE DATE: The actual day the insider executed the purchase or sale in the market.

INDUSTRY: The specific market sector the company operates in. Useful for identifying broader institutional capital flows across sectors.

OWNED AFTER: The total number of shares held by the insider following the transaction. This highlights the insider's remaining conviction in the company.

CHANGE %: The percentage increase or decrease of the insider's total position. Large percentage changes often carry more weight than the dollar amount alone.

TRADE TYPES DEFINITIONS

BUY: An open market purchase. Typically indicates an insider's belief that the stock is undervalued or poised for growth.

SELL: An open market sale. While often used for diversification or liquidity, large or unexpected sales can be a warning signal.

OPT+S (OPTION EXERCISE & SALE): This occurs when an insider exercises their stock options and sells them immediately. Often part of a structured compensation plan.